sensor_id;sensor_type;location;lat;lon;timestamp;temperature;humidity
75466;HTU21D;64049;46.290;44.240;2022-11-20T00:01:17;9.81;82.65
75466;HTU21D;64049;46.290;44.240;2022-11-20T00:03:44;9.78;82.84
75466;HTU21D;64049;46.290;44.240;2022-11-20T00:06:12;9.78;83.00
75466;HTU21D;64049;46.290;44.240;2022-11-20T00:08:39;9.76;83.00
75466;HTU21D;64049;46.290;44.240;2022-11-20T00:11:07;9.71;83.05
75466;HTU21D;64049;46.290;44.240;2022-11-20T00:13:34;9.66;83.12
75466;HTU21D;64049;46.290;44.240;2022-11-20T00:16:02;9.62;83.26
75466;HTU21D;64049;46.290;44.240;2022-11-20T00:18:29;9.69;83.29
75466;HTU21D;64049;46.290;44.240;2022-11-20T00:21:11;9.80;83.19
75466;HTU21D;64049;46.290;44.240;2022-11-20T00:23:37;9.85;82.98
75466;HTU21D;64049;46.290;44.240;2022-11-20T00:26:08;9.88;82.88
75466;HTU21D;64049;46.290;44.240;2022-11-20T00:28:34;9.91;82.87
75466;HTU21D;64049;46.290;44.240;2022-11-20T00:31:08;9.97;82.81
75466;HTU21D;64049;46.290;44.240;2022-11-20T00:33:34;10.03;82.73
75466;HTU21D;64049;46.290;44.240;2022-11-20T00:36:08;10.05;82.65
75466;HTU21D;64049;46.290;44.240;2022-11-20T00:38:35;10.05;82.62
75466;HTU21D;64049;46.290;44.240;2022-11-20T00:41:03;9.99;82.65
75466;HTU21D;64049;46.290;44.240;2022-11-20T00:43:29;9.86;82.71
75466;HTU21D;64049;46.290;44.240;2022-11-20T00:45:59;9.75;82.98
75466;HTU21D;64049;46.290;44.240;2022-11-20T00:48:26;9.66;83.18
75466;HTU21D;64049;46.290;44.240;2022-11-20T00:50:52;9.68;83.29
75466;HTU21D;64049;46.290;44.240;2022-11-20T00:53:19;9.65;83.31
75466;HTU21D;64049;46.290;44.240;2022-11-20T00:56:02;9.62;83.42
75466;HTU21D;64049;46.290;44.240;2022-11-20T00:58:34;9.53;83.50
75466;HTU21D;64049;46.290;44.240;2022-11-20T01:03:45;9.47;83.74
75466;HTU21D;64049;46.290;44.240;2022-11-20T01:08:40;9.66;83.78
75466;HTU21D;64049;46.290;44.240;2022-11-20T01:11:22;9.77;83.65
75466;HTU21D;64049;46.290;44.240;2022-11-20T01:13:49;9.84;83.43
75466;HTU21D;64049;46.290;44.240;2022-11-20T01:16:23;9.91;83.29
75466;HTU21D;64049;46.290;44.240;2022-11-20T01:18:51;9.95;83.18
75466;HTU21D;64049;46.290;44.240;2022-11-20T01:21:23;9.99;83.10
75466;HTU21D;64049;46.290;44.240;2022-11-20T01:23:50;10.03;83.04
75466;HTU21D;64049;46.290;44.240;2022-11-20T01:26:22;9.96;83.00
75466;HTU21D;64049;46.290;44.240;2022-11-20T01:28:48;9.90;83.13
75466;HTU21D;64049;46.290;44.240;2022-11-20T01:31:17;9.86;83.34
75466;HTU21D;64049;46.290;44.240;2022-11-20T01:33:45;9.90;83.34
75466;HTU21D;64049;46.290;44.240;2022-11-20T01:36:12;9.92;83.36
75466;HTU21D;64049;46.290;44.240;2022-11-20T01:38:39;9.91;83.43
75466;HTU21D;64049;46.290;44.240;2022-11-20T01:41:06;9.93;83.47
75466;HTU21D;64049;46.290;44.240;2022-11-20T01:43:32;9.92;83.45
75466;HTU21D;64049;46.290;44.240;2022-11-20T01:48:57;9.75;83.76
75466;HTU21D;64049;46.290;44.240;2022-11-20T01:54:00;9.61;84.10
75466;HTU21D;64049;46.290;44.240;2022-11-20T01:56:27;9.59;84.27
75466;HTU21D;64049;46.290;44.240;2022-11-20T01:58:56;9.62;84.45
75466;HTU21D;64049;46.290;44.240;2022-11-20T02:01:23;9.62;84.44
75466;HTU21D;64049;46.290;44.240;2022-11-20T02:03:50;9.59;84.48
75466;HTU21D;64049;46.290;44.240;2022-11-20T02:06:23;9.57;84.54
75466;HTU21D;64049;46.290;44.240;2022-11-20T02:08:51;9.53;84.58
75466;HTU21D;64049;46.290;44.240;2022-11-20T02:11:18;9.51;84.68
75466;HTU21D;64049;46.290;44.240;2022-11-20T02:13:44;9.51;84.74
75466;HTU21D;64049;46.290;44.240;2022-11-20T02:16:25;9.52;84.85
75466;HTU21D;64049;46.290;44.240;2022-11-20T02:18:54;9.49;84.84
75466;HTU21D;64049;46.290;44.240;2022-11-20T02:21:34;9.45;85.00
75466;HTU21D;64049;46.290;44.240;2022-11-20T02:24:08;9.44;85.03
75466;HTU21D;64049;46.290;44.240;2022-11-20T02:26:49;9.41;85.05
75466;HTU21D;64049;46.290;44.240;2022-11-20T02:29:19;9.41;85.15
75466;HTU21D;64049;46.290;44.240;2022-11-20T02:31:48;9.37;85.17
75466;HTU21D;64049;46.290;44.240;2022-11-20T02:34:14;9.33;85.16
75466;HTU21D;64049;46.290;44.240;2022-11-20T02:36:41;9.29;85.24
75466;HTU21D;64049;46.290;44.240;2022-11-20T02:39:09;9.27;85.29
75466;HTU21D;64049;46.290;44.240;2022-11-20T02:41:38;9.27;85.35
75466;HTU21D;64049;46.290;44.240;2022-11-20T02:44:04;9.31;85.50
75466;HTU21D;64049;46.290;44.240;2022-11-20T02:46:31;9.33;85.46
75466;HTU21D;64049;46.290;44.240;2022-11-20T02:48:57;9.29;85.51
75466;HTU21D;64049;46.290;44.240;2022-11-20T02:51:23;9.29;85.63
75466;HTU21D;64049;46.290;44.240;2022-11-20T02:53:49;9.31;85.71
75466;HTU21D;64049;46.290;44.240;2022-11-20T02:56:16;9.24;85.77
75466;HTU21D;64049;46.290;44.240;2022-11-20T02:58:42;9.22;85.85
75466;HTU21D;64049;46.290;44.240;2022-11-20T03:01:08;9.18;85.88
75466;HTU21D;64049;46.290;44.240;2022-11-20T03:03:33;9.12;85.90
75466;HTU21D;64049;46.290;44.240;2022-11-20T03:05:59;9.11;86.02
75466;HTU21D;64049;46.290;44.240;2022-11-20T03:08:25;9.10;86.06
75466;HTU21D;64049;46.290;44.240;2022-11-20T03:10:51;9.05;86.06
75466;HTU21D;64049;46.290;44.240;2022-11-20T03:13:18;9.03;86.07
75466;HTU21D;64049;46.290;44.240;2022-11-20T03:15:43;8.96;86.06
75466;HTU21D;64049;46.290;44.240;2022-11-20T03:18:09;8.92;86.10
75466;HTU21D;64049;46.290;44.240;2022-11-20T03:20:35;8.85;86.03
75466;HTU21D;64049;46.290;44.240;2022-11-20T03:23:02;8.74;86.06
75466;HTU21D;64049;46.290;44.240;2022-11-20T03:25:28;8.67;86.06
75466;HTU21D;64049;46.290;44.240;2022-11-20T03:27:54;8.63;86.13
75466;HTU21D;64049;46.290;44.240;2022-11-20T03:30:20;8.58;86.09
75466;HTU21D;64049;46.290;44.240;2022-11-20T03:32:46;8.53;86.19
75466;HTU21D;64049;46.290;44.240;2022-11-20T03:35:12;8.48;86.19
75466;HTU21D;64049;46.290;44.240;2022-11-20T03:37:38;8.48;86.18
75466;HTU21D;64049;46.290;44.240;2022-11-20T03:40:04;8.43;86.14
75466;HTU21D;64049;46.290;44.240;2022-11-20T03:42:30;8.41;86.20
75466;HTU21D;64049;46.290;44.240;2022-11-20T03:45:16;8.45;86.34
75466;HTU21D;64049;46.290;44.240;2022-11-20T03:47:43;8.61;86.24
75466;HTU21D;64049;46.290;44.240;2022-11-20T03:50:11;8.73;86.14
75466;HTU21D;64049;46.290;44.240;2022-11-20T03:52:40;8.87;86.04
75466;HTU21D;64049;46.290;44.240;2022-11-20T03:55:07;9.04;85.95
75466;HTU21D;64049;46.290;44.240;2022-11-20T03:57:33;9.17;85.89
75466;HTU21D;64049;46.290;44.240;2022-11-20T03:59:59;9.30;85.87
75466;HTU21D;64049;46.290;44.240;2022-11-20T04:02:25;9.38;85.79
75466;HTU21D;64049;46.290;44.240;2022-11-20T04:04:51;9.38;85.79
75466;HTU21D;64049;46.290;44.240;2022-11-20T04:07:17;9.36;85.77
75466;HTU21D;64049;46.290;44.240;2022-11-20T04:09:43;9.36;85.77
75466;HTU21D;64049;46.290;44.240;2022-11-20T04:12:09;9.30;85.68
75466;HTU21D;64049;46.290;44.240;2022-11-20T04:14:34;9.17;85.74
75466;HTU21D;64049;46.290;44.240;2022-11-20T04:17:01;9.09;85.89
75466;HTU21D;64049;46.290;44.240;2022-11-20T04:19:27;9.10;85.96
75466;HTU21D;64049;46.290;44.240;2022-11-20T04:21:53;9.05;85.93
75466;HTU21D;64049;46.290;44.240;2022-11-20T04:24:19;9.00;85.96
75466;HTU21D;64049;46.290;44.240;2022-11-20T04:26:44;9.01;86.07
75466;HTU21D;64049;46.290;44.240;2022-11-20T04:29:11;9.06;86.09
75466;HTU21D;64049;46.290;44.240;2022-11-20T04:31:37;9.08;86.05
75466;HTU21D;64049;46.290;44.240;2022-11-20T04:34:05;9.15;86.12
75466;HTU21D;64049;46.290;44.240;2022-11-20T04:36:32;9.24;86.06
75466;HTU21D;64049;46.290;44.240;2022-11-20T04:39:00;9.27;86.06
75466;HTU21D;64049;46.290;44.240;2022-11-20T04:41:28;9.25;86.07
75466;HTU21D;64049;46.290;44.240;2022-11-20T04:43:57;9.22;86.08
75466;HTU21D;64049;46.290;44.240;2022-11-20T04:46:33;9.19;86.12
75466;HTU21D;64049;46.290;44.240;2022-11-20T04:49:00;9.17;86.18
75466;HTU21D;64049;46.290;44.240;2022-11-20T04:51:26;9.15;86.20
75466;HTU21D;64049;46.290;44.240;2022-11-20T04:53:53;9.15;86.29
75466;HTU21D;64049;46.290;44.240;2022-11-20T04:56:19;9.17;86.30
75466;HTU21D;64049;46.290;44.240;2022-11-20T04:58:45;9.16;86.29
75466;HTU21D;64049;46.290;44.240;2022-11-20T05:01:14;9.15;86.31
75466;HTU21D;64049;46.290;44.240;2022-11-20T05:03:41;9.15;86.32
75466;HTU21D;64049;46.290;44.240;2022-11-20T05:06:08;9.16;86.33
75466;HTU21D;64049;46.290;44.240;2022-11-20T05:08:34;9.17;86.31
75466;HTU21D;64049;46.290;44.240;2022-11-20T05:11:15;9.16;86.29
75466;HTU21D;64049;46.290;44.240;2022-11-20T05:13:41;9.15;86.29
75466;HTU21D;64049;46.290;44.240;2022-11-20T05:16:18;9.12;86.32
75466;HTU21D;64049;46.290;44.240;2022-11-20T05:18:44;9.14;86.31
75466;HTU21D;64049;46.290;44.240;2022-11-20T05:21:11;9.11;86.25
75466;HTU21D;64049;46.290;44.240;2022-11-20T05:23:37;9.09;86.19
75466;HTU21D;64049;46.290;44.240;2022-11-20T05:26:06;9.06;86.20
75466;HTU21D;64049;46.290;44.240;2022-11-20T05:28:33;9.03;86.20
75466;HTU21D;64049;46.290;44.240;2022-11-20T05:31:19;9.00;86.22
75466;HTU21D;64049;46.290;44.240;2022-11-20T05:33:46;8.97;86.16
75466;HTU21D;64049;46.290;44.240;2022-11-20T05:36:13;8.94;86.12
75466;HTU21D;64049;46.290;44.240;2022-11-20T05:38:40;8.93;86.18
75466;HTU21D;64049;46.290;44.240;2022-11-20T05:41:15;8.92;86.18
75466;HTU21D;64049;46.290;44.240;2022-11-20T05:43:42;8.91;86.14
75466;HTU21D;64049;46.290;44.240;2022-11-20T05:46:10;8.92;86.14
75466;HTU21D;64049;46.290;44.240;2022-11-20T05:48:37;8.98;86.17
75466;HTU21D;64049;46.290;44.240;2022-11-20T05:51:05;9.09;86.09
75466;HTU21D;64049;46.290;44.240;2022-11-20T05:53:33;9.20;86.05
75466;HTU21D;64049;46.290;44.240;2022-11-20T05:56:04;9.34;85.90
75466;HTU21D;64049;46.290;44.240;2022-11-20T05:58:31;9.41;85.77
75466;HTU21D;64049;46.290;44.240;2022-11-20T06:01:16;9.47;85.65
75466;HTU21D;64049;46.290;44.240;2022-11-20T06:03:43;9.51;85.61
75466;HTU21D;64049;46.290;44.240;2022-11-20T06:06:14;9.55;85.55
75466;HTU21D;64049;46.290;44.240;2022-11-20T06:08:40;9.61;85.55
75466;HTU21D;64049;46.290;44.240;2022-11-20T06:11:09;9.65;85.45
75466;HTU21D;64049;46.290;44.240;2022-11-20T06:13:36;9.68;85.42
75466;HTU21D;64049;46.290;44.240;2022-11-20T06:16:02;9.78;85.35
75466;HTU21D;64049;46.290;44.240;2022-11-20T06:18:31;9.86;85.26
75466;HTU21D;64049;46.290;44.240;2022-11-20T06:21:02;9.93;85.09
75466;HTU21D;64049;46.290;44.240;2022-11-20T06:23:29;9.99;84.99
75466;HTU21D;64049;46.290;44.240;2022-11-20T06:25:55;10.03;84.79
75466;HTU21D;64049;46.290;44.240;2022-11-20T06:28:21;10.07;84.56
75466;HTU21D;64049;46.290;44.240;2022-11-20T06:30:50;10.13;84.33
75466;HTU21D;64049;46.290;44.240;2022-11-20T06:33:25;10.15;84.23
75466;HTU21D;64049;46.290;44.240;2022-11-20T06:35:51;10.24;84.07
75466;HTU21D;64049;46.290;44.240;2022-11-20T06:38:17;10.35;83.87
75466;HTU21D;64049;46.290;44.240;2022-11-20T06:40:43;10.50;83.34
75466;HTU21D;64049;46.290;44.240;2022-11-20T06:43:12;10.52;82.65
75466;HTU21D;64049;46.290;44.240;2022-11-20T06:45:38;10.53;82.28
75466;HTU21D;64049;46.290;44.240;2022-11-20T06:48:04;10.53;81.52
75466;HTU21D;64049;46.290;44.240;2022-11-20T06:50:33;10.51;80.91
75466;HTU21D;64049;46.290;44.240;2022-11-20T06:53:04;10.57;80.48
75466;HTU21D;64049;46.290;44.240;2022-11-20T06:55:32;10.65;80.19
75466;HTU21D;64049;46.290;44.240;2022-11-20T06:57:58;10.74;79.65
75466;HTU21D;64049;46.290;44.240;2022-11-20T07:00:27;10.72;79.11
75466;HTU21D;64049;46.290;44.240;2022-11-20T07:02:53;10.70;78.53
75466;HTU21D;64049;46.290;44.240;2022-11-20T07:05:20;10.74;78.30
75466;HTU21D;64049;46.290;44.240;2022-11-20T07:07:46;10.81;78.06
75466;HTU21D;64049;46.290;44.240;2022-11-20T07:10:15;10.85;77.69
75466;HTU21D;64049;46.290;44.240;2022-11-20T07:12:41;10.97;77.74
75466;HTU21D;64049;46.290;44.240;2022-11-20T07:15:10;11.11;77.04
75466;HTU21D;64049;46.290;44.240;2022-11-20T07:17:39;11.11;76.53
75466;HTU21D;64049;46.290;44.240;2022-11-20T07:20:05;11.09;75.79
75466;HTU21D;64049;46.290;44.240;2022-11-20T07:22:32;11.09;75.50
75466;HTU21D;64049;46.290;44.240;2022-11-20T07:24:57;11.15;75.76
75466;HTU21D;64049;46.290;44.240;2022-11-20T07:27:27;11.19;75.83
75466;HTU21D;64049;46.290;44.240;2022-11-20T07:29:53;11.23;75.48
75466;HTU21D;64049;46.290;44.240;2022-11-20T07:32:22;11.29;74.94
75466;HTU21D;64049;46.290;44.240;2022-11-20T07:34:49;11.31;74.44
75466;HTU21D;64049;46.290;44.240;2022-11-20T07:37:17;11.33;74.40
75466;HTU21D;64049;46.290;44.240;2022-11-20T07:39:46;11.34;73.88
75466;HTU21D;64049;46.290;44.240;2022-11-20T07:42:12;11.36;73.57
75466;HTU21D;64049;46.290;44.240;2022-11-20T07:44:41;11.36;73.47
75466;HTU21D;64049;46.290;44.240;2022-11-20T07:47:09;11.41;73.51
75466;HTU21D;64049;46.290;44.240;2022-11-20T07:49:35;11.41;73.12
75466;HTU21D;64049;46.290;44.240;2022-11-20T07:52:01;11.41;73.54
75466;HTU21D;64049;46.290;44.240;2022-11-20T07:54:27;11.47;73.91
75466;HTU21D;64049;46.290;44.240;2022-11-20T07:56:53;11.58;73.78
75466;HTU21D;64049;46.290;44.240;2022-11-20T07:59:22;11.59;73.73
75466;HTU21D;64049;46.290;44.240;2022-11-20T08:01:48;11.58;73.44
75466;HTU21D;64049;46.290;44.240;2022-11-20T08:04:17;11.53;73.50
75466;HTU21D;64049;46.290;44.240;2022-11-20T08:06:46;11.54;73.67
75466;HTU21D;64049;46.290;44.240;2022-11-20T08:09:11;11.51;73.13
75466;HTU21D;64049;46.290;44.240;2022-11-20T08:11:38;11.42;73.03
75466;HTU21D;64049;46.290;44.240;2022-11-20T08:14:22;11.37;72.81
75466;HTU21D;64049;46.290;44.240;2022-11-20T08:16:52;11.32;72.49
75466;HTU21D;64049;46.290;44.240;2022-11-20T08:19:18;11.29;72.44
75466;HTU21D;64049;46.290;44.240;2022-11-20T08:21:47;11.26;72.74
75466;HTU21D;64049;46.290;44.240;2022-11-20T08:24:16;11.15;73.03
75466;HTU21D;64049;46.290;44.240;2022-11-20T08:26:42;11.10;73.35
75466;HTU21D;64049;46.290;44.240;2022-11-20T08:29:08;11.12;73.44
75466;HTU21D;64049;46.290;44.240;2022-11-20T08:31:34;11.22;73.58
75466;HTU21D;64049;46.290;44.240;2022-11-20T08:34:00;11.30;73.54
75466;HTU21D;64049;46.290;44.240;2022-11-20T08:36:32;11.32;72.99
75466;HTU21D;64049;46.290;44.240;2022-11-20T08:38:58;11.37;72.94
75466;HTU21D;64049;46.290;44.240;2022-11-20T08:41:24;11.33;73.22
75466;HTU21D;64049;46.290;44.240;2022-11-20T08:43:53;11.36;72.83
75466;HTU21D;64049;46.290;44.240;2022-11-20T08:46:24;11.30;72.74
75466;HTU21D;64049;46.290;44.240;2022-11-20T08:48:51;11.23;72.65
75466;HTU21D;64049;46.290;44.240;2022-11-20T08:51:17;11.19;73.05
75466;HTU21D;64049;46.290;44.240;2022-11-20T08:53:45;11.30;73.14
75466;HTU21D;64049;46.290;44.240;2022-11-20T08:56:11;11.38;72.76
75466;HTU21D;64049;46.290;44.240;2022-11-20T08:58:38;11.40;72.57
75466;HTU21D;64049;46.290;44.240;2022-11-20T09:01:04;11.47;72.50
75466;HTU21D;64049;46.290;44.240;2022-11-20T09:03:30;11.38;72.32
75466;HTU21D;64049;46.290;44.240;2022-11-20T09:05:58;11.24;72.69
75466;HTU21D;64049;46.290;44.240;2022-11-20T09:08:28;11.18;72.97
75466;HTU21D;64049;46.290;44.240;2022-11-20T09:10:55;11.26;73.00
75466;HTU21D;64049;46.290;44.240;2022-11-20T09:13:23;11.33;72.67
75466;HTU21D;64049;46.290;44.240;2022-11-20T09:15:54;11.37;72.13
75466;HTU21D;64049;46.290;44.240;2022-11-20T09:18:20;11.37;71.38
75466;HTU21D;64049;46.290;44.240;2022-11-20T09:20:47;11.39;71.43
75466;HTU21D;64049;46.290;44.240;2022-11-20T09:23:17;11.46;71.37
75466;HTU21D;64049;46.290;44.240;2022-11-20T09:25:43;11.57;70.72
75466;HTU21D;64049;46.290;44.240;2022-11-20T09:28:09;11.67;70.12
75466;HTU21D;64049;46.290;44.240;2022-11-20T09:30:35;11.77;69.87
75466;HTU21D;64049;46.290;44.240;2022-11-20T09:33:05;11.87;69.61
75466;HTU21D;64049;46.290;44.240;2022-11-20T09:35:33;12.04;69.72
75466;HTU21D;64049;46.290;44.240;2022-11-20T09:38:04;12.12;69.40
75466;HTU21D;64049;46.290;44.240;2022-11-20T09:40:31;12.15;69.88
75466;HTU21D;64049;46.290;44.240;2022-11-20T09:54:05;12.19;69.00
75466;HTU21D;64049;46.290;44.240;2022-11-20T09:56:34;12.21;68.76
75466;HTU21D;64049;46.290;44.240;2022-11-20T09:59:08;12.18;68.53
75466;HTU21D;64049;46.290;44.240;2022-11-20T10:10:47;12.35;67.52
75466;HTU21D;64049;46.290;44.240;2022-11-20T10:21:51;12.63;66.96
75466;HTU21D;64049;46.290;44.240;2022-11-20T10:30:03;12.31;66.56
75466;HTU21D;64049;46.290;44.240;2022-11-20T10:32:35;12.34;66.50
75466;HTU21D;64049;46.290;44.240;2022-11-20T10:35:42;12.52;66.37
75466;HTU21D;64049;46.290;44.240;2022-11-20T10:41:32;12.79;65.79
75466;HTU21D;64049;46.290;44.240;2022-11-20T10:44:16;12.90;65.57
75466;HTU21D;64049;46.290;44.240;2022-11-20T10:47:03;12.96;65.76
75466;HTU21D;64049;46.290;44.240;2022-11-20T10:49:34;12.99;65.64
75466;HTU21D;64049;46.290;44.240;2022-11-20T10:55:31;12.79;66.56
75466;HTU21D;64049;46.290;44.240;2022-11-20T10:58:14;12.82;66.90
75466;HTU21D;64049;46.290;44.240;2022-11-20T11:00:45;12.90;66.69
75466;HTU21D;64049;46.290;44.240;2022-11-20T11:03:26;12.80;66.48
75466;HTU21D;64049;46.290;44.240;2022-11-20T11:06:37;12.80;66.94
75466;HTU21D;64049;46.290;44.240;2022-11-20T11:09:11;12.84;66.85
75466;HTU21D;64049;46.290;44.240;2022-11-20T11:11:39;12.84;66.85
75466;HTU21D;64049;46.290;44.240;2022-11-20T11:14:15;12.84;66.60
75466;HTU21D;64049;46.290;44.240;2022-11-20T11:16:56;12.86;66.37
75466;HTU21D;64049;46.290;44.240;2022-11-20T11:19:22;12.84;66.72
75466;HTU21D;64049;46.290;44.240;2022-11-20T11:21:55;12.91;66.54
75466;HTU21D;64049;46.290;44.240;2022-11-20T11:24:29;12.96;66.60
75466;HTU21D;64049;46.290;44.240;2022-11-20T11:27:02;13.01;66.65
75466;HTU21D;64049;46.290;44.240;2022-11-20T11:29:33;13.10;65.69
75466;HTU21D;64049;46.290;44.240;2022-11-20T11:32:19;13.09;65.50
75466;HTU21D;64049;46.290;44.240;2022-11-20T11:35:05;13.09;65.04
75466;HTU21D;64049;46.290;44.240;2022-11-20T11:37:36;13.06;65.53
75466;HTU21D;64049;46.290;44.240;2022-11-20T11:40:04;13.05;65.49
75466;HTU21D;64049;46.290;44.240;2022-11-20T11:42:33;13.05;65.75
75466;HTU21D;64049;46.290;44.240;2022-11-20T11:45:05;13.06;65.89
75466;HTU21D;64049;46.290;44.240;2022-11-20T11:47:44;13.03;66.12
75466;HTU21D;64049;46.290;44.240;2022-11-20T12:01:08;13.01;65.75
75466;HTU21D;64049;46.290;44.240;2022-11-20T12:03:50;13.01;65.93
75466;HTU21D;64049;46.290;44.240;2022-11-20T12:06:21;13.12;65.51
75466;HTU21D;64049;46.290;44.240;2022-11-20T12:08:52;13.26;65.37
75466;HTU21D;64049;46.290;44.240;2022-11-20T12:11:40;13.36;65.07
75466;HTU21D;64049;46.290;44.240;2022-11-20T12:16:41;13.66;64.14
75466;HTU21D;64049;46.290;44.240;2022-11-20T12:19:12;14.12;62.56
75466;HTU21D;64049;46.290;44.240;2022-11-20T12:21:56;14.37;61.49
75466;HTU21D;64049;46.290;44.240;2022-11-20T12:24:35;14.27;61.41
75466;HTU21D;64049;46.290;44.240;2022-11-20T12:30:07;14.04;62.22
75466;HTU21D;64049;46.290;44.240;2022-11-20T12:35:27;13.29;64.31
75466;HTU21D;64049;46.290;44.240;2022-11-20T12:40:34;13.23;64.68
75466;HTU21D;64049;46.290;44.240;2022-11-20T12:54:09;12.71;65.66
75466;HTU21D;64049;46.290;44.240;2022-11-20T12:57:07;12.52;66.02
75466;HTU21D;64049;46.290;44.240;2022-11-20T13:02:33;12.06;66.94
75466;HTU21D;64049;46.290;44.240;2022-11-20T13:05:17;11.77;67.59
75466;HTU21D;64049;46.290;44.240;2022-11-20T13:07:50;11.56;68.04
75466;HTU21D;64049;46.290;44.240;2022-11-20T13:10:45;11.40;68.46
75466;HTU21D;64049;46.290;44.240;2022-11-20T13:13:14;11.26;68.62
75466;HTU21D;64049;46.290;44.240;2022-11-20T13:15:55;11.14;68.97
75466;HTU21D;64049;46.290;44.240;2022-11-20T13:18:24;11.03;69.07
75466;HTU21D;64049;46.290;44.240;2022-11-20T13:20:50;10.96;69.16
75466;HTU21D;64049;46.290;44.240;2022-11-20T13:23:27;10.87;69.41
75466;HTU21D;64049;46.290;44.240;2022-11-20T13:26:18;10.81;69.61
75466;HTU21D;64049;46.290;44.240;2022-11-20T13:28:46;10.71;69.68
75466;HTU21D;64049;46.290;44.240;2022-11-20T13:34:24;10.59;69.81
75466;HTU21D;64049;46.290;44.240;2022-11-20T13:36:56;10.57;70.00
75466;HTU21D;64049;46.290;44.240;2022-11-20T13:39:27;10.56;70.16
75466;HTU21D;64049;46.290;44.240;2022-11-20T13:41:59;10.55;70.29
75466;HTU21D;64049;46.290;44.240;2022-11-20T13:44:39;10.51;70.44
75466;HTU21D;64049;46.290;44.240;2022-11-20T13:47:23;10.51;70.64
75466;HTU21D;64049;46.290;44.240;2022-11-20T13:49:52;10.51;70.66
75466;HTU21D;64049;46.290;44.240;2022-11-20T13:55:46;10.52;70.66
75466;HTU21D;64049;46.290;44.240;2022-11-20T14:01:19;10.54;70.84
75466;HTU21D;64049;46.290;44.240;2022-11-20T14:03:46;10.55;70.79
75466;HTU21D;64049;46.290;44.240;2022-11-20T14:06:31;10.55;70.93
75466;HTU21D;64049;46.290;44.240;2022-11-20T14:08:58;10.56;70.87
75466;HTU21D;64049;46.290;44.240;2022-11-20T14:11:29;10.55;71.00
75466;HTU21D;64049;46.290;44.240;2022-11-20T14:14:13;10.55;71.08
75466;HTU21D;64049;46.290;44.240;2022-11-20T14:16:40;10.56;71.11
75466;HTU21D;64049;46.290;44.240;2022-11-20T14:19:26;10.55;71.25
75466;HTU21D;64049;46.290;44.240;2022-11-20T14:22:07;10.56;71.25
75466;HTU21D;64049;46.290;44.240;2022-11-20T14:24:33;10.57;71.25
75466;HTU21D;64049;46.290;44.240;2022-11-20T14:27:00;10.57;71.33
75466;HTU21D;64049;46.290;44.240;2022-11-20T14:29:37;10.58;71.44
75466;HTU21D;64049;46.290;44.240;2022-11-20T14:32:04;10.59;71.41
75466;HTU21D;64049;46.290;44.240;2022-11-20T14:34:39;10.59;71.44
75466;HTU21D;64049;46.290;44.240;2022-11-20T14:37:11;10.62;71.49
75466;HTU21D;64049;46.290;44.240;2022-11-20T14:39:42;10.58;71.51
75466;HTU21D;64049;46.290;44.240;2022-11-20T14:42:18;10.57;71.59
75466;HTU21D;64049;46.290;44.240;2022-11-20T14:44:45;10.55;71.62
75466;HTU21D;64049;46.290;44.240;2022-11-20T14:47:13;10.57;71.68
75466;HTU21D;64049;46.290;44.240;2022-11-20T14:49:41;10.56;71.73
75466;HTU21D;64049;46.290;44.240;2022-11-20T14:52:19;10.54;71.87
75466;HTU21D;64049;46.290;44.240;2022-11-20T14:54:55;10.52;71.92
75466;HTU21D;64049;46.290;44.240;2022-11-20T14:57:30;10.50;72.01
75466;HTU21D;64049;46.290;44.240;2022-11-20T15:02:41;10.44;72.18
75466;HTU21D;64049;46.290;44.240;2022-11-20T15:05:08;10.42;72.22
75466;HTU21D;64049;46.290;44.240;2022-11-20T15:07:40;10.40;72.29
75466;HTU21D;64049;46.290;44.240;2022-11-20T15:10:26;10.38;72.38
75466;HTU21D;64049;46.290;44.240;2022-11-20T15:12:55;10.38;72.35
75466;HTU21D;64049;46.290;44.240;2022-11-20T15:15:35;10.37;72.38
75466;HTU21D;64049;46.290;44.240;2022-11-20T15:18:01;10.35;72.37
75466;HTU21D;64049;46.290;44.240;2022-11-20T15:20:31;10.35;72.39
75466;HTU21D;64049;46.290;44.240;2022-11-20T15:22:58;10.34;72.41
75466;HTU21D;64049;46.290;44.240;2022-11-20T15:25:24;10.30;72.51
75466;HTU21D;64049;46.290;44.240;2022-11-20T15:27:54;10.29;72.61
75466;HTU21D;64049;46.290;44.240;2022-11-20T15:30:21;10.28;72.61
75466;HTU21D;64049;46.290;44.240;2022-11-20T15:32:48;10.28;72.61
75466;HTU21D;64049;46.290;44.240;2022-11-20T15:35:15;10.27;72.68
75466;HTU21D;64049;46.290;44.240;2022-11-20T15:37:42;10.24;72.84
75466;HTU21D;64049;46.290;44.240;2022-11-20T15:40:08;10.23;72.97
75466;HTU21D;64049;46.290;44.240;2022-11-20T15:42:35;10.20;73.04
75466;HTU21D;64049;46.290;44.240;2022-11-20T15:45:01;10.18;73.07
75466;HTU21D;64049;46.290;44.240;2022-11-20T15:47:34;10.16;73.08
75466;HTU21D;64049;46.290;44.240;2022-11-20T15:50:01;10.14;73.07
75466;HTU21D;64049;46.290;44.240;2022-11-20T15:52:27;10.14;73.12
75466;HTU21D;64049;46.290;44.240;2022-11-20T15:54:52;10.12;73.15
75466;HTU21D;64049;46.290;44.240;2022-11-20T15:57:18;10.12;73.18
75466;HTU21D;64049;46.290;44.240;2022-11-20T15:59:44;10.11;73.18
75466;HTU21D;64049;46.290;44.240;2022-11-20T16:02:11;10.12;73.17
75466;HTU21D;64049;46.290;44.240;2022-11-20T16:04:44;10.12;73.20
75466;HTU21D;64049;46.290;44.240;2022-11-20T16:07:10;10.11;73.27
75466;HTU21D;64049;46.290;44.240;2022-11-20T16:09:38;10.10;73.38
75466;HTU21D;64049;46.290;44.240;2022-11-20T16:12:13;10.10;73.41
75466;HTU21D;64049;46.290;44.240;2022-11-20T16:14:59;10.09;73.58
75466;HTU21D;64049;46.290;44.240;2022-11-20T16:17:43;10.06;73.60
75466;HTU21D;64049;46.290;44.240;2022-11-20T16:20:11;10.05;73.65
75466;HTU21D;64049;46.290;44.240;2022-11-20T16:22:37;10.05;73.67
75466;HTU21D;64049;46.290;44.240;2022-11-20T16:25:03;10.06;73.73
75466;HTU21D;64049;46.290;44.240;2022-11-20T16:27:29;10.07;73.77
75466;HTU21D;64049;46.290;44.240;2022-11-20T16:29:58;10.09;73.83
75466;HTU21D;64049;46.290;44.240;2022-11-20T16:32:24;10.10;73.88
75466;HTU21D;64049;46.290;44.240;2022-11-20T16:34:57;10.10;73.92
75466;HTU21D;64049;46.290;44.240;2022-11-20T16:37:23;10.06;73.98
75466;HTU21D;64049;46.290;44.240;2022-11-20T16:39:49;9.99;74.18
75466;HTU21D;64049;46.290;44.240;2022-11-20T16:42:15;9.90;74.44
75466;HTU21D;64049;46.290;44.240;2022-11-20T16:44:41;9.79;74.76
75466;HTU21D;64049;46.290;44.240;2022-11-20T16:50:50;9.50;75.44
75466;HTU21D;64049;46.290;44.240;2022-11-20T16:53:18;9.42;75.67
75466;HTU21D;64049;46.290;44.240;2022-11-20T16:55:44;9.39;75.79
75466;HTU21D;64049;46.290;44.240;2022-11-20T16:58:11;9.36;75.89
75466;HTU21D;64049;46.290;44.240;2022-11-20T17:00:38;9.32;75.97
75466;HTU21D;64049;46.290;44.240;2022-11-20T17:03:07;9.27;76.04
75466;HTU21D;64049;46.290;44.240;2022-11-20T17:05:34;9.22;76.12
75466;HTU21D;64049;46.290;44.240;2022-11-20T17:08:00;9.16;76.24